sensor_id;sensor_type;location;lat;lon;timestamp;P1;durP1;ratioP1;P2;durP2;ratioP2
10383;SDS011;5238;43.508;4.980;2023-07-31T00:01:25;2.83;;;1.42;;
10383;SDS011;5238;43.508;4.980;2023-07-31T00:03:54;2.60;;;1.50;;
10383;SDS011;5238;43.508;4.980;2023-07-31T00:06:20;2.58;;;1.20;;
10383;SDS011;5238;43.508;4.980;2023-07-31T00:08:47;5.68;;;1.45;;
10383;SDS011;5238;43.508;4.980;2023-07-31T00:11:14;1.60;;;1.15;;
10383;SDS011;5238;43.508;4.980;2023-07-31T00:13:41;5.43;;;1.65;;
10383;SDS011;5238;43.508;4.980;2023-07-31T00:16:08;2.67;;;1.40;;
10383;SDS011;5238;43.508;4.980;2023-07-31T00:18:35;2.25;;;1.33;;
10383;SDS011;5238;43.508;4.980;2023-07-31T00:21:03;2.03;;;1.45;;
10383;SDS011;5238;43.508;4.980;2023-07-31T00:23:30;2.65;;;1.52;;
10383;SDS011;5238;43.508;4.980;2023-07-31T00:25:57;3.45;;;1.40;;
10383;SDS011;5238;43.508;4.980;2023-07-31T00:28:24;1.77;;;1.23;;
10383;SDS011;5238;43.508;4.980;2023-07-31T00:30:52;3.40;;;1.40;;
10383;SDS011;5238;43.508;4.980;2023-07-31T00:33:19;2.58;;;1.52;;
10383;SDS011;5238;43.508;4.980;2023-07-31T00:35:46;2.45;;;1.52;;
10383;SDS011;5238;43.508;4.980;2023-07-31T00:38:16;2.47;;;1.20;;
10383;SDS011;5238;43.508;4.980;2023-07-31T00:40:42;3.78;;;1.63;;
10383;SDS011;5238;43.508;4.980;2023-07-31T00:43:09;3.08;;;1.33;;
10383;SDS011;5238;43.508;4.980;2023-07-31T00:45:36;3.13;;;1.60;;
10383;SDS011;5238;43.508;4.980;2023-07-31T00:48:04;3.42;;;1.80;;
10383;SDS011;5238;43.508;4.980;2023-07-31T00:50:32;2.53;;;1.23;;
10383;SDS011;5238;43.508;4.980;2023-07-31T00:53:01;4.13;;;1.35;;
10383;SDS011;5238;43.508;4.980;2023-07-31T00:55:29;2.70;;;1.42;;
10383;SDS011;5238;43.508;4.980;2023-07-31T00:57:56;3.30;;;1.45;;
10383;SDS011;5238;43.508;4.980;2023-07-31T01:00:23;4.72;;;1.65;;
10383;SDS011;5238;43.508;4.980;2023-07-31T01:02:50;2.28;;;1.48;;
10383;SDS011;5238;43.508;4.980;2023-07-31T01:05:18;3.83;;;1.40;;
10383;SDS011;5238;43.508;4.980;2023-07-31T01:07:52;3.10;;;1.30;;
10383;SDS011;5238;43.508;4.980;2023-07-31T01:10:33;5.13;;;1.38;;
10383;SDS011;5238;43.508;4.980;2023-07-31T01:13:12;3.30;;;1.65;;
10383;SDS011;5238;43.508;4.980;2023-07-31T01:15:39;2.53;;;1.50;;
10383;SDS011;5238;43.508;4.980;2023-07-31T01:18:06;2.75;;;1.38;;
10383;SDS011;5238;43.508;4.980;2023-07-31T01:20:33;4.85;;;1.50;;
10383;SDS011;5238;43.508;4.980;2023-07-31T01:23:08;1.80;;;1.20;;
10383;SDS011;5238;43.508;4.980;2023-07-31T01:25:59;1.88;;;1.50;;
10383;SDS011;5238;43.508;4.980;2023-07-31T01:28:33;2.75;;;1.45;;
10383;SDS011;5238;43.508;4.980;2023-07-31T01:31:09;3.28;;;1.30;;
10383;SDS011;5238;43.508;4.980;2023-07-31T01:33:40;2.85;;;1.70;;
10383;SDS011;5238;43.508;4.980;2023-07-31T01:36:07;2.47;;;1.23;;
10383;SDS011;5238;43.508;4.980;2023-07-31T01:38:35;4.68;;;1.83;;
10383;SDS011;5238;43.508;4.980;2023-07-31T01:41:03;4.28;;;1.75;;
10383;SDS011;5238;43.508;4.980;2023-07-31T01:43:30;3.03;;;1.63;;
10383;SDS011;5238;43.508;4.980;2023-07-31T01:45:57;3.47;;;1.48;;
10383;SDS011;5238;43.508;4.980;2023-07-31T01:48:24;2.55;;;1.33;;
10383;SDS011;5238;43.508;4.980;2023-07-31T01:50:51;3.15;;;1.50;;
10383;SDS011;5238;43.508;4.980;2023-07-31T01:53:18;2.00;;;1.27;;
10383;SDS011;5238;43.508;4.980;2023-07-31T01:55:45;3.17;;;1.33;;
10383;SDS011;5238;43.508;4.980;2023-07-31T01:58:13;2.70;;;1.27;;
10383;SDS011;5238;43.508;4.980;2023-07-31T02:00:40;2.83;;;1.30;;
10383;SDS011;5238;43.508;4.980;2023-07-31T02:03:07;2.85;;;1.30;;
10383;SDS011;5238;43.508;4.980;2023-07-31T02:05:34;5.28;;;1.52;;
10383;SDS011;5238;43.508;4.980;2023-07-31T02:08:01;1.60;;;1.33;;
10383;SDS011;5238;43.508;4.980;2023-07-31T02:10:28;3.15;;;1.60;;
10383;SDS011;5238;43.508;4.980;2023-07-31T02:12:54;3.65;;;1.50;;
10383;SDS011;5238;43.508;4.980;2023-07-31T02:15:24;3.30;;;1.40;;
10383;SDS011;5238;43.508;4.980;2023-07-31T02:17:51;2.28;;;1.40;;
10383;SDS011;5238;43.508;4.980;2023-07-31T02:20:18;3.03;;;1.45;;
10383;SDS011;5238;43.508;4.980;2023-07-31T02:22:44;2.55;;;1.48;;
10383;SDS011;5238;43.508;4.980;2023-07-31T02:25:11;2.55;;;1.30;;
10383;SDS011;5238;43.508;4.980;2023-07-31T02:27:38;2.28;;;1.40;;
10383;SDS011;5238;43.508;4.980;2023-07-31T02:30:06;5.90;;;1.60;;
10383;SDS011;5238;43.508;4.980;2023-07-31T02:32:35;2.80;;;1.40;;
10383;SDS011;5238;43.508;4.980;2023-07-31T02:35:02;3.58;;;1.27;;
10383;SDS011;5238;43.508;4.980;2023-07-31T02:37:29;3.80;;;1.50;;
10383;SDS011;5238;43.508;4.980;2023-07-31T02:39:57;4.90;;;1.60;;
10383;SDS011;5238;43.508;4.980;2023-07-31T02:42:23;4.75;;;1.70;;
10383;SDS011;5238;43.508;4.980;2023-07-31T02:44:50;4.55;;;1.70;;
10383;SDS011;5238;43.508;4.980;2023-07-31T02:47:20;2.20;;;1.35;;
10383;SDS011;5238;43.508;4.980;2023-07-31T02:49:49;3.28;;;1.30;;
10383;SDS011;5238;43.508;4.980;2023-07-31T02:52:16;3.25;;;1.63;;
10383;SDS011;5238;43.508;4.980;2023-07-31T02:54:43;4.10;;;1.45;;
10383;SDS011;5238;43.508;4.980;2023-07-31T02:57:10;4.45;;;1.40;;
10383;SDS011;5238;43.508;4.980;2023-07-31T02:59:37;3.22;;;1.45;;
10383;SDS011;5238;43.508;4.980;2023-07-31T03:02:04;4.32;;;1.80;;
10383;SDS011;5238;43.508;4.980;2023-07-31T03:04:31;4.00;;;1.90;;
10383;SDS011;5238;43.508;4.980;2023-07-31T03:06:59;2.85;;;1.38;;
10383;SDS011;5238;43.508;4.980;2023-07-31T03:09:26;2.20;;;1.30;;
10383;SDS011;5238;43.508;4.980;2023-07-31T03:11:53;2.08;;;1.40;;
10383;SDS011;5238;43.508;4.980;2023-07-31T03:14:20;3.17;;;1.52;;
10383;SDS011;5238;43.508;4.980;2023-07-31T03:16:47;5.82;;;1.95;;
10383;SDS011;5238;43.508;4.980;2023-07-31T03:19:14;4.38;;;1.65;;
10383;SDS011;5238;43.508;4.980;2023-07-31T03:21:41;3.28;;;1.70;;
10383;SDS011;5238;43.508;4.980;2023-07-31T03:24:09;2.53;;;1.48;;
10383;SDS011;5238;43.508;4.980;2023-07-31T03:26:37;3.75;;;1.50;;
10383;SDS011;5238;43.508;4.980;2023-07-31T03:29:06;4.30;;;1.60;;
10383;SDS011;5238;43.508;4.980;2023-07-31T03:31:33;3.38;;;1.65;;
10383;SDS011;5238;43.508;4.980;2023-07-31T03:34:00;5.20;;;1.92;;
10383;SDS011;5238;43.508;4.980;2023-07-31T03:36:27;5.65;;;2.03;;
10383;SDS011;5238;43.508;4.980;2023-07-31T03:38:54;2.28;;;1.55;;
10383;SDS011;5238;43.508;4.980;2023-07-31T03:41:22;3.25;;;1.52;;
10383;SDS011;5238;43.508;4.980;2023-07-31T03:43:49;3.97;;;1.50;;
10383;SDS011;5238;43.508;4.980;2023-07-31T03:46:18;5.35;;;2.10;;
10383;SDS011;5238;43.508;4.980;2023-07-31T03:48:45;2.92;;;1.58;;
10383;SDS011;5238;43.508;4.980;2023-07-31T03:51:12;3.88;;;1.40;;
10383;SDS011;5238;43.508;4.980;2023-07-31T03:53:39;2.35;;;1.60;;
10383;SDS011;5238;43.508;4.980;2023-07-31T03:56:05;3.17;;;1.80;;
10383;SDS011;5238;43.508;4.980;2023-07-31T03:58:34;3.85;;;1.60;;
10383;SDS011;5238;43.508;4.980;2023-07-31T04:01:01;4.15;;;1.73;;
10383;SDS011;5238;43.508;4.980;2023-07-31T04:03:29;1.58;;;1.30;;
10383;SDS011;5238;43.508;4.980;2023-07-31T04:05:56;4.22;;;1.63;;
10383;SDS011;5238;43.508;4.980;2023-07-31T04:08:22;3.40;;;1.45;;
10383;SDS011;5238;43.508;4.980;2023-07-31T04:10:50;3.83;;;1.48;;
10383;SDS011;5238;43.508;4.980;2023-07-31T04:13:17;3.67;;;1.60;;
10383;SDS011;5238;43.508;4.980;2023-07-31T04:15:49;3.08;;;1.50;;
10383;SDS011;5238;43.508;4.980;2023-07-31T04:18:17;3.20;;;1.60;;
10383;SDS011;5238;43.508;4.980;2023-07-31T04:20:44;3.17;;;1.55;;
10383;SDS011;5238;43.508;4.980;2023-07-31T04:23:11;3.92;;;1.55;;
10383;SDS011;5238;43.508;4.980;2023-07-31T04:25:38;3.85;;;1.77;;
10383;SDS011;5238;43.508;4.980;2023-07-31T04:28:05;5.47;;;1.80;;
10383;SDS011;5238;43.508;4.980;2023-07-31T04:30:32;3.70;;;1.75;;
10383;SDS011;5238;43.508;4.980;2023-07-31T04:33:01;5.43;;;1.95;;
10383;SDS011;5238;43.508;4.980;2023-07-31T04:35:28;3.35;;;1.80;;
10383;SDS011;5238;43.508;4.980;2023-07-31T04:37:54;3.63;;;1.88;;
10383;SDS011;5238;43.508;4.980;2023-07-31T04:40:22;3.92;;;1.30;;
10383;SDS011;5238;43.508;4.980;2023-07-31T04:42:48;2.97;;;1.60;;
10383;SDS011;5238;43.508;4.980;2023-07-31T04:45:15;4.18;;;1.80;;
10383;SDS011;5238;43.508;4.980;2023-07-31T04:47:42;4.47;;;1.65;;
10383;SDS011;5238;43.508;4.980;2023-07-31T04:50:11;3.13;;;1.40;;
10383;SDS011;5238;43.508;4.980;2023-07-31T04:52:38;3.63;;;1.60;;
10383;SDS011;5238;43.508;4.980;2023-07-31T04:55:05;4.35;;;1.80;;
10383;SDS011;5238;43.508;4.980;2023-07-31T04:57:33;5.32;;;1.50;;
10383;SDS011;5238;43.508;4.980;2023-07-31T04:59:59;2.80;;;1.70;;
10383;SDS011;5238;43.508;4.980;2023-07-31T05:02:27;3.38;;;1.60;;
10383;SDS011;5238;43.508;4.980;2023-07-31T05:04:53;5.82;;;1.60;;
10383;SDS011;5238;43.508;4.980;2023-07-31T05:07:22;5.85;;;2.10;;
10383;SDS011;5238;43.508;4.980;2023-07-31T05:09:49;4.93;;;1.63;;
10383;SDS011;5238;43.508;4.980;2023-07-31T05:12:16;3.90;;;1.55;;
10383;SDS011;5238;43.508;4.980;2023-07-31T05:14:43;4.88;;;1.92;;
10383;SDS011;5238;43.508;4.980;2023-07-31T05:17:10;3.55;;;1.80;;
10383;SDS011;5238;43.508;4.980;2023-07-31T05:19:37;4.03;;;1.60;;
10383;SDS011;5238;43.508;4.980;2023-07-31T05:22:04;3.22;;;1.67;;
10383;SDS011;5238;43.508;4.980;2023-07-31T05:24:32;6.22;;;1.90;;
10383;SDS011;5238;43.508;4.980;2023-07-31T05:26:59;3.92;;;1.77;;
10383;SDS011;5238;43.508;4.980;2023-07-31T05:29:26;4.43;;;1.63;;
10383;SDS011;5238;43.508;4.980;2023-07-31T05:31:53;4.75;;;1.75;;
10383;SDS011;5238;43.508;4.980;2023-07-31T05:34:20;3.70;;;1.60;;
10383;SDS011;5238;43.508;4.980;2023-07-31T05:36:47;3.05;;;1.40;;
10383;SDS011;5238;43.508;4.980;2023-07-31T05:39:14;3.67;;;1.80;;
10383;SDS011;5238;43.508;4.980;2023-07-31T05:41:42;2.85;;;1.30;;
10383;SDS011;5238;43.508;4.980;2023-07-31T05:44:09;3.95;;;1.60;;
10383;SDS011;5238;43.508;4.980;2023-07-31T05:46:36;4.65;;;1.80;;
10383;SDS011;5238;43.508;4.980;2023-07-31T05:49:03;3.08;;;1.63;;
10383;SDS011;5238;43.508;4.980;2023-07-31T05:51:30;6.65;;;1.83;;
10383;SDS011;5238;43.508;4.980;2023-07-31T05:53:57;3.90;;;1.67;;
10383;SDS011;5238;43.508;4.980;2023-07-31T05:56:23;3.33;;;1.90;;
10383;SDS011;5238;43.508;4.980;2023-07-31T05:58:53;2.85;;;1.63;;
10383;SDS011;5238;43.508;4.980;2023-07-31T06:01:22;6.80;;;1.65;;
10383;SDS011;5238;43.508;4.980;2023-07-31T06:03:49;5.28;;;1.67;;
10383;SDS011;5238;43.508;4.980;2023-07-31T06:06:16;5.03;;;1.80;;
10383;SDS011;5238;43.508;4.980;2023-07-31T06:08:43;2.88;;;1.52;;
10383;SDS011;5238;43.508;4.980;2023-07-31T06:11:10;3.90;;;1.58;;
10383;SDS011;5238;43.508;4.980;2023-07-31T06:13:37;4.43;;;1.50;;
10383;SDS011;5238;43.508;4.980;2023-07-31T06:16:05;2.50;;;1.60;;
10383;SDS011;5238;43.508;4.980;2023-07-31T06:18:32;4.20;;;1.65;;
10383;SDS011;5238;43.508;4.980;2023-07-31T06:20:59;6.22;;;1.85;;
10383;SDS011;5238;43.508;4.980;2023-07-31T06:23:26;4.75;;;1.70;;
10383;SDS011;5238;43.508;4.980;2023-07-31T06:25:53;8.52;;;1.80;;
10383;SDS011;5238;43.508;4.980;2023-07-31T06:28:20;5.60;;;1.55;;
10383;SDS011;5238;43.508;4.980;2023-07-31T06:30:47;5.53;;;1.90;;
10383;SDS011;5238;43.508;4.980;2023-07-31T06:33:15;6.43;;;1.65;;
10383;SDS011;5238;43.508;4.980;2023-07-31T06:35:42;4.47;;;1.75;;
10383;SDS011;5238;43.508;4.980;2023-07-31T06:38:10;3.15;;;1.45;;
10383;SDS011;5238;43.508;4.980;2023-07-31T06:40:37;3.78;;;1.73;;
10383;SDS011;5238;43.508;4.980;2023-07-31T06:43:05;3.55;;;1.77;;
10383;SDS011;5238;43.508;4.980;2023-07-31T06:45:33;3.50;;;1.65;;
10383;SDS011;5238;43.508;4.980;2023-07-31T06:48:00;5.18;;;1.80;;
10383;SDS011;5238;43.508;4.980;2023-07-31T06:50:30;4.88;;;1.88;;
10383;SDS011;5238;43.508;4.980;2023-07-31T06:52:57;7.15;;;1.80;;
10383;SDS011;5238;43.508;4.980;2023-07-31T06:55:24;5.47;;;2.00;;
10383;SDS011;5238;43.508;4.980;2023-07-31T06:57:53;3.33;;;1.52;;
10383;SDS011;5238;43.508;4.980;2023-07-31T07:00:21;3.33;;;1.60;;
10383;SDS011;5238;43.508;4.980;2023-07-31T07:02:49;4.63;;;1.98;;
10383;SDS011;5238;43.508;4.980;2023-07-31T07:05:16;6.43;;;1.80;;
10383;SDS011;5238;43.508;4.980;2023-07-31T07:07:45;4.70;;;1.83;;
10383;SDS011;5238;43.508;4.980;2023-07-31T07:10:12;5.22;;;1.88;;
10383;SDS011;5238;43.508;4.980;2023-07-31T07:12:39;3.20;;;1.73;;
10383;SDS011;5238;43.508;4.980;2023-07-31T07:15:06;3.38;;;1.70;;
10383;SDS011;5238;43.508;4.980;2023-07-31T07:17:34;7.25;;;1.85;;
10383;SDS011;5238;43.508;4.980;2023-07-31T07:20:02;5.15;;;2.00;;
10383;SDS011;5238;43.508;4.980;2023-07-31T07:22:29;4.13;;;1.52;;
10383;SDS011;5238;43.508;4.980;2023-07-31T07:24:57;4.05;;;1.63;;
10383;SDS011;5238;43.508;4.980;2023-07-31T07:27:24;6.65;;;2.15;;
10383;SDS011;5238;43.508;4.980;2023-07-31T07:29:51;7.18;;;1.98;;
10383;SDS011;5238;43.508;4.980;2023-07-31T07:32:18;5.80;;;1.80;;
10383;SDS011;5238;43.508;4.980;2023-07-31T07:34:46;5.93;;;1.92;;
10383;SDS011;5238;43.508;4.980;2023-07-31T07:37:14;5.32;;;1.83;;
10383;SDS011;5238;43.508;4.980;2023-07-31T07:39:41;8.13;;;2.00;;
10383;SDS011;5238;43.508;4.980;2023-07-31T07:42:10;8.13;;;2.10;;
10383;SDS011;5238;43.508;4.980;2023-07-31T07:44:37;4.05;;;1.50;;
10383;SDS011;5238;43.508;4.980;2023-07-31T07:47:04;3.55;;;1.70;;
10383;SDS011;5238;43.508;4.980;2023-07-31T07:49:32;3.63;;;1.52;;
10383;SDS011;5238;43.508;4.980;2023-07-31T07:51:59;4.93;;;1.77;;
10383;SDS011;5238;43.508;4.980;2023-07-31T07:54:26;6.68;;;1.70;;
10383;SDS011;5238;43.508;4.980;2023-07-31T07:56:53;5.93;;;1.50;;
10383;SDS011;5238;43.508;4.980;2023-07-31T07:59:21;5.45;;;1.67;;
10383;SDS011;5238;43.508;4.980;2023-07-31T08:01:48;5.57;;;1.83;;
10383;SDS011;5238;43.508;4.980;2023-07-31T08:04:15;4.22;;;1.80;;
10383;SDS011;5238;43.508;4.980;2023-07-31T08:06:42;4.55;;;1.90;;
10383;SDS011;5238;43.508;4.980;2023-07-31T08:09:09;6.55;;;1.95;;
10383;SDS011;5238;43.508;4.980;2023-07-31T08:11:36;3.53;;;1.65;;
10383;SDS011;5238;43.508;4.980;2023-07-31T08:14:03;8.77;;;1.90;;
10383;SDS011;5238;43.508;4.980;2023-07-31T08:16:31;3.90;;;2.03;;
10383;SDS011;5238;43.508;4.980;2023-07-31T08:18:58;3.88;;;1.98;;
10383;SDS011;5238;43.508;4.980;2023-07-31T08:21:26;4.68;;;1.80;;
10383;SDS011;5238;43.508;4.980;2023-07-31T08:23:52;4.45;;;2.03;;
10383;SDS011;5238;43.508;4.980;2023-07-31T08:26:19;5.45;;;1.98;;
10383;SDS011;5238;43.508;4.980;2023-07-31T08:28:47;7.10;;;1.95;;
10383;SDS011;5238;43.508;4.980;2023-07-31T08:31:14;4.65;;;1.85;;
10383;SDS011;5238;43.508;4.980;2023-07-31T08:33:42;4.38;;;1.77;;
10383;SDS011;5238;43.508;4.980;2023-07-31T08:36:09;5.00;;;1.70;;
10383;SDS011;5238;43.508;4.980;2023-07-31T08:38:36;7.53;;;2.22;;
10383;SDS011;5238;43.508;4.980;2023-07-31T08:41:03;4.93;;;1.67;;
10383;SDS011;5238;43.508;4.980;2023-07-31T08:43:30;5.78;;;1.90;;
10383;SDS011;5238;43.508;4.980;2023-07-31T08:45:58;3.00;;;1.70;;
10383;SDS011;5238;43.508;4.980;2023-07-31T08:48:25;3.92;;;1.90;;
10383;SDS011;5238;43.508;4.980;2023-07-31T08:50:55;5.43;;;2.00;;
10383;SDS011;5238;43.508;4.980;2023-07-31T08:53:22;6.75;;;2.03;;
10383;SDS011;5238;43.508;4.980;2023-07-31T08:55:49;2.40;;;1.83;;
10383;SDS011;5238;43.508;4.980;2023-07-31T08:58:18;4.63;;;1.70;;
10383;SDS011;5238;43.508;4.980;2023-07-31T09:00:46;4.43;;;1.80;;
10383;SDS011;5238;43.508;4.980;2023-07-31T09:03:14;6.25;;;2.28;;
10383;SDS011;5238;43.508;4.980;2023-07-31T09:05:42;8.05;;;2.15;;
10383;SDS011;5238;43.508;4.980;2023-07-31T09:08:12;6.55;;;1.95;;
10383;SDS011;5238;43.508;4.980;2023-07-31T09:10:40;6.32;;;1.92;;
10383;SDS011;5238;43.508;4.980;2023-07-31T09:13:08;4.47;;;2.13;;
10383;SDS011;5238;43.508;4.980;2023-07-31T09:15:35;5.03;;;2.00;;
10383;SDS011;5238;43.508;4.980;2023-07-31T09:18:04;1.85;;;1.45;;
10383;SDS011;5238;43.508;4.980;2023-07-31T09:20:32;3.72;;;1.73;;
10383;SDS011;5238;43.508;4.980;2023-07-31T09:23:04;4.15;;;1.70;;
10383;SDS011;5238;43.508;4.980;2023-07-31T09:25:34;6.25;;;2.22;;
10383;SDS011;5238;43.508;4.980;2023-07-31T09:28:02;4.05;;;2.03;;
10383;SDS011;5238;43.508;4.980;2023-07-31T09:30:36;7.25;;;2.17;;
10383;SDS011;5238;43.508;4.980;2023-07-31T09:33:11;4.10;;;1.90;;
10383;SDS011;5238;43.508;4.980;2023-07-31T09:35:38;3.90;;;1.80;;
10383;SDS011;5238;43.508;4.980;2023-07-31T09:38:07;3.97;;;1.90;;
10383;SDS011;5238;43.508;4.980;2023-07-31T09:40:37;4.28;;;2.10;;
10383;SDS011;5238;43.508;4.980;2023-07-31T09:43:05;2.45;;;2.13;;
10383;SDS011;5238;43.508;4.980;2023-07-31T09:45:36;3.53;;;1.90;;
10383;SDS011;5238;43.508;4.980;2023-07-31T09:48:04;3.63;;;1.90;;
10383;SDS011;5238;43.508;4.980;2023-07-31T09:50:34;3.58;;;2.03;;
10383;SDS011;5238;43.508;4.980;2023-07-31T09:53:03;3.42;;;2.13;;
10383;SDS011;5238;43.508;4.980;2023-07-31T09:55:30;5.32;;;1.98;;
10383;SDS011;5238;43.508;4.980;2023-07-31T09:57:59;5.50;;;2.10;;
10383;SDS011;5238;43.508;4.980;2023-07-31T10:00:30;3.03;;;2.00;;
10383;SDS011;5238;43.508;4.980;2023-07-31T10:02:58;4.20;;;1.95;;
10383;SDS011;5238;43.508;4.980;2023-07-31T10:05:27;4.15;;;2.03;;
10383;SDS011;5238;43.508;4.980;2023-07-31T10:07:58;3.95;;;1.80;;
10383;SDS011;5238;43.508;4.980;2023-07-31T10:10:25;4.18;;;1.95;;
10383;SDS011;5238;43.508;4.980;2023-07-31T10:12:54;5.20;;;1.92;;
10383;SDS011;5238;43.508;4.980;2023-07-31T10:15:23;2.38;;;1.77;;
10383;SDS011;5238;43.508;4.980;2023-07-31T10:17:52;4.97;;;1.95;;
10383;SDS011;5238;43.508;4.980;2023-07-31T10:20:21;2.30;;;1.70;;
10383;SDS011;5238;43.508;4.980;2023-07-31T10:22:48;4.45;;;2.17;;
10383;SDS011;5238;43.508;4.980;2023-07-31T10:25:16;3.65;;;1.83;;
10383;SDS011;5238;43.508;4.980;2023-07-31T10:27:44;3.60;;;2.10;;
10383;SDS011;5238;43.508;4.980;2023-07-31T10:30:14;4.15;;;1.95;;
10383;SDS011;5238;43.508;4.980;2023-07-31T10:32:45;4.18;;;1.67;;
10383;SDS011;5238;43.508;4.980;2023-07-31T10:35:15;3.80;;;1.90;;
10383;SDS011;5238;43.508;4.980;2023-07-31T10:37:43;3.40;;;2.00;;
10383;SDS011;5238;43.508;4.980;2023-07-31T10:40:11;3.08;;;1.60;;
10383;SDS011;5238;43.508;4.980;2023-07-31T10:42:44;3.40;;;2.20;;
10383;SDS011;5238;43.508;4.980;2023-07-31T10:45:13;3.35;;;1.70;;
10383;SDS011;5238;43.508;4.980;2023-07-31T10:47:51;2.97;;;1.77;;
10383;SDS011;5238;43.508;4.980;2023-07-31T10:50:25;3.20;;;1.70;;
10383;SDS011;5238;43.508;4.980;2023-07-31T10:52:54;5.20;;;2.08;;
10383;SDS011;5238;43.508;4.980;2023-07-31T10:55:25;2.63;;;1.70;;
10383;SDS011;5238;43.508;4.980;2023-07-31T10:57:58;2.28;;;1.63;;
10383;SDS011;5238;43.508;4.980;2023-07-31T11:00:31;2.67;;;1.63;;
10383;SDS011;5238;43.508;4.980;2023-07-31T11:03:01;3.65;;;1.80;;
10383;SDS011;5238;43.508;4.980;2023-07-31T11:05:42;2.50;;;1.80;;
10383;SDS011;5238;43.508;4.980;2023-07-31T11:08:20;4.35;;;2.10;;
10383;SDS011;5238;43.508;4.980;2023-07-31T11:10:49;3.63;;;1.98;;
10383;SDS011;5238;43.508;4.980;2023-07-31T11:13:17;5.75;;;2.17;;
10383;SDS011;5238;43.508;4.980;2023-07-31T11:15:44;3.95;;;1.70;;
10383;SDS011;5238;43.508;4.980;2023-07-31T11:18:13;5.55;;;1.95;;
10383;SDS011;5238;43.508;4.980;2023-07-31T11:20:41;4.80;;;1.88;;
10383;SDS011;5238;43.508;4.980;2023-07-31T11:23:09;4.15;;;2.30;;
10383;SDS011;5238;43.508;4.980;2023-07-31T11:25:37;6.93;;;4.05;;
10383;SDS011;5238;43.508;4.980;2023-07-31T11:28:08;4.88;;;3.58;;
10383;SDS011;5238;43.508;4.980;2023-07-31T11:30:36;3.38;;;2.95;;
10383;SDS011;5238;43.508;4.980;2023-07-31T11:33:04;3.72;;;1.83;;
10383;SDS011;5238;43.508;4.980;2023-07-31T11:35:34;3.90;;;2.17;;
10383;SDS011;5238;43.508;4.980;2023-07-31T11:38:02;3.60;;;1.98;;
10383;SDS011;5238;43.508;4.980;2023-07-31T11:40:29;5.60;;;2.50;;
10383;SDS011;5238;43.508;4.980;2023-07-31T11:42:56;3.13;;;2.40;;
10383;SDS011;5238;43.508;4.980;2023-07-31T11:45:24;3.75;;;1.90;;
10383;SDS011;5238;43.508;4.980;2023-07-31T11:47:54;2.80;;;2.05;;
10383;SDS011;5238;43.508;4.980;2023-07-31T11:50:22;2.67;;;2.00;;
10383;SDS011;5238;43.508;4.980;2023-07-31T11:52:52;2.55;;;1.50;;
10383;SDS011;5238;43.508;4.980;2023-07-31T11:55:23;4.63;;;1.70;;
10383;SDS011;5238;43.508;4.980;2023-07-31T11:57:51;3.53;;;1.90;;
10383;SDS011;5238;43.508;4.980;2023-07-31T12:00:20;3.63;;;1.73;;
10383;SDS011;5238;43.508;4.980;2023-07-31T12:02:47;4.07;;;1.70;;
10383;SDS011;5238;43.508;4.980;2023-07-31T12:05:15;3.00;;;1.75;;
10383;SDS011;5238;43.508;4.980;2023-07-31T12:07:48;2.42;;;1.80;;
10383;SDS011;5238;43.508;4.980;2023-07-31T12:10:28;2.78;;;1.70;;
10383;SDS011;5238;43.508;4.980;2023-07-31T12:12:56;6.10;;;2.13;;
10383;SDS011;5238;43.508;4.980;2023-07-31T12:15:28;3.47;;;2.10;;
10383;SDS011;5238;43.508;4.980;2023-07-31T12:18:00;2.80;;;1.88;;
10383;SDS011;5238;43.508;4.980;2023-07-31T12:20:30;2.80;;;1.80;;
10383;SDS011;5238;43.508;4.980;2023-07-31T12:22:58;3.60;;;2.00;;
10383;SDS011;5238;43.508;4.980;2023-07-31T12:25:29;2.92;;;1.60;;
10383;SDS011;5238;43.508;4.980;2023-07-31T12:27:57;4.35;;;1.80;;
10383;SDS011;5238;43.508;4.980;2023-07-31T12:30:28;4.00;;;1.98;;
10383;SDS011;5238;43.508;4.980;2023-07-31T12:32:55;4.55;;;2.22;;
10383;SDS011;5238;43.508;4.980;2023-07-31T12:35:22;3.58;;;1.88;;
10383;SDS011;5238;43.508;4.980;2023-07-31T12:37:49;3.13;;;1.70;;
10383;SDS011;5238;43.508;4.980;2023-07-31T12:40:16;3.63;;;1.77;;
10383;SDS011;5238;43.508;4.980;2023-07-31T12:42:44;3.38;;;2.10;;
10383;SDS011;5238;43.508;4.980;2023-07-31T12:45:12;2.67;;;1.95;;
10383;SDS011;5238;43.508;4.980;2023-07-31T12:47:39;3.13;;;1.90;;
10383;SDS011;5238;43.508;4.980;2023-07-31T12:50:06;2.35;;;1.73;;
10383;SDS011;5238;43.508;4.980;2023-07-31T12:52:34;2.67;;;2.08;;
10383;SDS011;5238;43.508;4.980;2023-07-31T12:55:00;2.28;;;1.60;;
10383;SDS011;5238;43.508;4.980;2023-07-31T12:57:27;3.88;;;1.80;;
10383;SDS011;5238;43.508;4.980;2023-07-31T12:59:56;2.40;;;1.83;;
10383;SDS011;5238;43.508;4.980;2023-07-31T13:02:23;3.00;;;1.58;;
10383;SDS011;5238;43.508;4.980;2023-07-31T13:04:49;3.75;;;1.88;;
10383;SDS011;5238;43.508;4.980;2023-07-31T13:07:17;5.97;;;2.45;;
10383;SDS011;5238;43.508;4.980;2023-07-31T13:09:44;3.97;;;2.00;;
10383;SDS011;5238;43.508;4.980;2023-07-31T13:12:11;2.95;;;1.83;;
10383;SDS011;5238;43.508;4.980;2023-07-31T13:14:38;2.83;;;1.90;;
10383;SDS011;5238;43.508;4.980;2023-07-31T13:17:06;3.70;;;2.05;;
10383;SDS011;5238;43.508;4.980;2023-07-31T13:19:33;2.05;;;1.85;;
10383;SDS011;5238;43.508;4.980;2023-07-31T13:22:00;2.50;;;1.73;;
10383;SDS011;5238;43.508;4.980;2023-07-31T13:24:27;3.38;;;1.90;;
10383;SDS011;5238;43.508;4.980;2023-07-31T13:26:55;3.38;;;1.90;;
10383;SDS011;5238;43.508;4.980;2023-07-31T13:29:22;3.78;;;1.75;;
10383;SDS011;5238;43.508;4.980;2023-07-31T13:31:49;2.70;;;1.70;;
10383;SDS011;5238;43.508;4.980;2023-07-31T13:34:17;2.63;;;1.92;;
10383;SDS011;5238;43.508;4.980;2023-07-31T13:36:44;3.22;;;2.03;;
10383;SDS011;5238;43.508;4.980;2023-07-31T13:39:11;3.33;;;1.85;;
10383;SDS011;5238;43.508;4.980;2023-07-31T13:41:38;4.55;;;2.20;;
10383;SDS011;5238;43.508;4.980;2023-07-31T13:44:05;3.15;;;1.95;;
10383;SDS011;5238;43.508;4.980;2023-07-31T13:46:32;4.47;;;2.45;;
10383;SDS011;5238;43.508;4.980;2023-07-31T13:48:59;6.10;;;2.10;;
10383;SDS011;5238;43.508;4.980;2023-07-31T13:51:28;4.90;;;2.17;;
10383;SDS011;5238;43.508;4.980;2023-07-31T13:53:54;2.30;;;2.10;;
10383;SDS011;5238;43.508;4.980;2023-07-31T13:56:21;3.72;;;2.20;;
10383;SDS011;5238;43.508;4.980;2023-07-31T13:58:48;3.40;;;2.30;;
10383;SDS011;5238;43.508;4.980;2023-07-31T14:01:16;3.28;;;2.33;;
10383;SDS011;5238;43.508;4.980;2023-07-31T14:03:42;6.07;;;2.25;;
10383;SDS011;5238;43.508;4.980;2023-07-31T14:06:09;4.68;;;2.75;;
10383;SDS011;5238;43.508;4.980;2023-07-31T14:08:38;4.68;;;2.30;;
10383;SDS011;5238;43.508;4.980;2023-07-31T14:11:05;6.20;;;2.80;;
10383;SDS011;5238;43.508;4.980;2023-07-31T14:13:32;3.35;;;2.63;;
10383;SDS011;5238;43.508;4.980;2023-07-31T14:15:59;4.50;;;2.88;;
10383;SDS011;5238;43.508;4.980;2023-07-31T14:18:26;3.40;;;2.65;;
10383;SDS011;5238;43.508;4.980;2023-07-31T14:20:53;2.90;;;2.60;;
10383;SDS011;5238;43.508;4.980;2023-07-31T14:23:20;3.97;;;2.50;;
10383;SDS011;5238;43.508;4.980;2023-07-31T14:25:48;6.40;;;3.08;;
10383;SDS011;5238;43.508;4.980;2023-07-31T14:28:15;3.58;;;2.80;;
10383;SDS011;5238;43.508;4.980;2023-07-31T14:30:42;6.68;;;3.60;;
10383;SDS011;5238;43.508;4.980;2023-07-31T14:33:09;4.30;;;3.33;;
10383;SDS011;5238;43.508;4.980;2023-07-31T14:35:36;6.47;;;3.22;;
10383;SDS011;5238;43.508;4.980;2023-07-31T14:38:03;4.22;;;3.40;;
10383;SDS011;5238;43.508;4.980;2023-07-31T14:40:30;4.80;;;3.17;;
10383;SDS011;5238;43.508;4.980;2023-07-31T14:42:58;5.13;;;3.38;;
10383;SDS011;5238;43.508;4.980;2023-07-31T14:45:25;4.43;;;3.38;;
10383;SDS011;5238;43.508;4.980;2023-07-31T14:47:52;5.53;;;4.18;;
10383;SDS011;5238;43.508;4.980;2023-07-31T14:50:19;5.85;;;3.88;;
10383;SDS011;5238;43.508;4.980;2023-07-31T14:52:46;5.55;;;4.32;;
10383;SDS011;5238;43.508;4.980;2023-07-31T14:55:13;4.28;;;3.75;;
10383;SDS011;5238;43.508;4.980;2023-07-31T14:57:40;7.05;;;4.97;;
10383;SDS011;5238;43.508;4.980;2023-07-31T15:00:09;6.30;;;4.95;;
10383;SDS011;5238;43.508;4.980;2023-07-31T15:02:37;5.25;;;4.50;;
10383;SDS011;5238;43.508;4.980;2023-07-31T15:05:04;6.45;;;4.32;;